LiveATC.Net - Listen to live air traffic control over the Internet!


ICAO: KHKY  IATA: HKY   Airport: Hickory Regional Airport
City: Hickory   State/Province: North Carolina
Country: United States   Continent: North America
KHKY METAR Weather: KHKY 110053Z 25003KT 10SM CLR 03/01 A3013 RMK AO2 SLP199 T00280006
KHKY Flight Activity (FlightAware)
KHKY Airport Info   (AirNav) (iFlightPlanner)
KHKY VFR Sectional Chart   (iFlightPlanner) 
KHKY IFR Low Chart   (iFlightPlanner) 

KHKY Tower
Feed Status: UP   Listeners: 0
Listen in your browser - HTML5 player (in browser, HTML5)
Listen in your browser - requires Flash (in browser, requires Flash)
Click here to listen with your own player (launches your MP3 player)
KHKY Tower Audio Archives
FacilityFrequency
Hickory Tower128.150

NOTICE

Unauthorized use prohibited. See LiveATC.net Terms of Service


Find LiveATC Audio Streams


Airport/ARTCC Code

Frequency Search
(e.g., 124.400, 128.75)
Site-wide search
 


Browse LiveATC Feeds
Top 50 LiveATC Feeds
Bad Weather Areas

LiveATC FAQ
Offer a LiveATC Feed
Contact LiveATC.net
Press Inquiries

LiveATC on iPhone
LiveATC on Android

Windows Phone
Windows 8/10

LiveATC Mobile
(Mobile browser)

ATC Audio Archives
Interesting Recordings

LiveATC Forums


Home Page
About LiveATC.net
Make a Donation
Terms of Use
Privacy Policy

Canadian Air Freqs

AIRMETs/SIGMETs

FAA Airport Status
Nat'l Airspace Status
Arrival Demand Charts


Server Software By:
Icecast.org
Liquidsoap